Archival Weather

Václav Havel Intl Apt

Prague, Czechia (LKPR)

Report from: Monday, May 29, 2023 4:00 AM CEST
Current time: Sunday, July 14, 2024 1:46 PM CEST

Current weather – Weather history – Daily summaries
Weather forecast

Temperature8.0°C (46.4°F)
Dew point4.0°C (39.2°F)
Winds 1 kts (0.5 m/s, 1.2 mph) Vrb
Winds variableWinds variable
Clouds Sky clear
Altimeter30.06 in.Hg (1018 mB)
Relative humidity76 %
Density altitude-882 ft. (-269 m)
Remarks Ceiling and visibility OK
No significant changes expected in the next two hours
Flight conditions Visual Meteorological Conditions
Raw dataLKPR 290200Z VRB01KT CAVOK 08/04 Q1018 NOSIG
An error has occurred. This application may no longer respond until reloaded. Reload 🗙